Capitol Logistics 3271




KTLH
Tallahassee International Airport
Tallahassee, Florida
KMIA
Miami International Airport
Miami, Florida

Activity Log

Date Flight Route Aircraft Duration
04/11/2021 CPX3271 HEVVN NICKI JUULI SSCOT5 SF34 1h 54m
04/05/2021 CPX3271 WOUND V97 PIE V35 CURVE SF34 1h 33m
06/08/2019 CPX671 HEVVN NICKI JUULI SSCOT5 SF34 1h 37m

Route Details

Aircraft Information
Primary: Saab 340AF
Backup: Not Available
Route Data
Distance: 350nm
Duration: 2h 00m
Recm'd Route: HEVVN NICKI JUULI SSCOT5
Origin Wx: KTLH 180253Z 14003KT 10SM OVC005 18/18 A2988 RMK AO2 LTG DSNT SW RAE51 SLP116 P0009 60030 T01830178 53004
Dest. Wx: KMIA 180253Z 27005KT 10SM CLR 25/19 A2992 RMK AO2 SLP131 T02500194 51013 $
Notes: